sensor_id;sensor_type;location;lat;lon;timestamp;pressure;altitude;pressure_sealevel;temperature;humidity
78573;BME280;67862;0.000;0.000;2023-02-27T00:01:22;99046.28;;;21.34;62.48
78573;BME280;67862;0.000;0.000;2023-02-27T00:03:47;99056.97;;;21.30;62.14
78573;BME280;67862;0.000;0.000;2023-02-27T00:06:12;99066.22;;;21.34;63.38
78573;BME280;67862;0.000;0.000;2023-02-27T00:08:38;99074.94;;;21.36;63.07
78573;BME280;67862;0.000;0.000;2023-02-27T00:11:03;99071.69;;;21.34;63.15
78573;BME280;67862;0.000;0.000;2023-02-27T00:13:29;99077.66;;;21.36;62.92
78573;BME280;67862;0.000;0.000;2023-02-27T00:15:54;99076.53;;;21.37;62.54
78573;BME280;67862;0.000;0.000;2023-02-27T00:18:21;99078.75;;;21.35;62.12
78573;BME280;67862;0.000;0.000;2023-02-27T00:20:46;99081.19;;;21.37;62.75
78573;BME280;67862;0.000;0.000;2023-02-27T00:23:12;99070.28;;;21.37;62.86
78573;BME280;67862;0.000;0.000;2023-02-27T00:25:40;99072.72;;;21.38;62.94
78573;BME280;67862;0.000;0.000;2023-02-27T00:28:05;99078.75;;;21.35;63.12
78573;BME280;67862;0.000;0.000;2023-02-27T00:30:31;99079.56;;;21.36;62.91
78573;BME280;67862;0.000;0.000;2023-02-27T00:32:56;99084.22;;;21.35;63.15
78573;BME280;67862;0.000;0.000;2023-02-27T00:35:22;99084.75;;;21.37;62.71
78573;BME280;67862;0.000;0.000;2023-02-27T00:37:47;99093.53;;;21.34;63.07
78573;BME280;67862;0.000;0.000;2023-02-27T00:40:12;99089.09;;;21.38;63.39
78573;BME280;67862;0.000;0.000;2023-02-27T00:42:38;99086.06;;;21.40;63.08
78573;BME280;67862;0.000;0.000;2023-02-27T00:45:04;99089.09;;;21.38;63.20
78573;BME280;67862;0.000;0.000;2023-02-27T00:47:29;99087.69;;;21.41;63.30
78573;BME280;67862;0.000;0.000;2023-02-27T00:49:55;99097.81;;;21.40;63.00
78573;BME280;67862;0.000;0.000;2023-02-27T00:52:20;99093.16;;;21.41;63.53
78573;BME280;67862;0.000;0.000;2023-02-27T00:54:45;99094.50;;;21.43;63.51
78573;BME280;67862;0.000;0.000;2023-02-27T00:57:11;99093.97;;;21.41;62.48
78573;BME280;67862;0.000;0.000;2023-02-27T00:59:36;99098.59;;;21.41;63.51
78573;BME280;67862;0.000;0.000;2023-02-27T01:04:35;99108.16;;;21.43;62.83
78573;BME280;67862;0.000;0.000;2023-02-27T01:07:01;99116.06;;;21.45;63.67
78573;BME280;67862;0.000;0.000;2023-02-27T01:09:26;99105.13;;;21.45;63.51
78573;BME280;67862;0.000;0.000;2023-02-27T01:11:52;99104.84;;;21.47;63.21
78573;BME280;67862;0.000;0.000;2023-02-27T01:14:17;99106.97;;;21.50;63.28
78573;BME280;67862;0.000;0.000;2023-02-27T01:16:43;99112.72;;;21.48;64.57
78573;BME280;67862;0.000;0.000;2023-02-27T01:19:08;99107.47;;;21.52;64.18
78573;BME280;67862;0.000;0.000;2023-02-27T01:21:33;99116.78;;;21.51;64.28
78573;BME280;67862;0.000;0.000;2023-02-27T01:23:59;99115.69;;;21.52;64.54
78573;BME280;67862;0.000;0.000;2023-02-27T01:26:24;99105.66;;;21.47;63.87
78573;BME280;67862;0.000;0.000;2023-02-27T01:28:49;99106.66;;;21.51;64.42
78573;BME280;67862;0.000;0.000;2023-02-27T01:31:15;99109.69;;;21.50;64.40
78573;BME280;67862;0.000;0.000;2023-02-27T01:33:40;99114.34;;;21.49;63.94
78573;BME280;67862;0.000;0.000;2023-02-27T01:36:05;99114.06;;;21.51;64.22
78573;BME280;67862;0.000;0.000;2023-02-27T01:38:31;99116.78;;;21.51;63.96
78573;BME280;67862;0.000;0.000;2023-02-27T01:40:56;99120.13;;;21.48;63.99
78573;BME280;67862;0.000;0.000;2023-02-27T01:43:22;99118.78;;;21.45;63.97
78573;BME280;67862;0.000;0.000;2023-02-27T01:45:48;99125.06;;;21.46;64.35
78573;BME280;67862;0.000;0.000;2023-02-27T01:48:23;99123.94;;;21.47;64.70
78573;BME280;67862;0.000;0.000;2023-02-27T01:50:57;99128.81;;;21.50;64.24
78573;BME280;67862;0.000;0.000;2023-02-27T01:53:28;99114.66;;;21.48;64.31
78573;BME280;67862;0.000;0.000;2023-02-27T01:56:12;99120.47;;;21.41;64.39
78573;BME280;67862;0.000;0.000;2023-02-27T01:59:05;99134.88;;;21.47;64.46
78573;BME280;67862;0.000;0.000;2023-02-27T02:01:58;99125.56;;;21.48;64.01
78573;BME280;67862;0.000;0.000;2023-02-27T02:04:26;99131.03;;;21.48;63.74
78573;BME280;67862;0.000;0.000;2023-02-27T02:06:57;99126.97;;;21.45;64.08
78573;BME280;67862;0.000;0.000;2023-02-27T02:09:23;99128.81;;;21.50;63.91
78573;BME280;67862;0.000;0.000;2023-02-27T02:11:49;99136.72;;;21.51;64.26
78573;BME280;67862;0.000;0.000;2023-02-27T02:14:15;99132.44;;;21.45;64.64
78573;BME280;67862;0.000;0.000;2023-02-27T02:17:02;99138.72;;;21.46;64.78
78573;BME280;67862;0.000;0.000;2023-02-27T02:32:51;99171.38;;;21.56;64.84
78573;BME280;67862;0.000;0.000;2023-02-27T02:40:37;99170.31;;;21.52;64.79
78573;BME280;67862;0.000;0.000;2023-02-27T02:43:13;99174.16;;;21.51;64.66
78573;BME280;67862;0.000;0.000;2023-02-27T02:45:47;99172.00;;;21.48;65.11
78573;BME280;67862;0.000;0.000;2023-02-27T02:48:24;99176.59;;;21.52;65.44
78573;BME280;67862;0.000;0.000;2023-02-27T02:50:54;99179.09;;;21.49;65.14
78573;BME280;67862;0.000;0.000;2023-02-27T02:55:53;99191.13;;;21.48;65.73
78573;BME280;67862;0.000;0.000;2023-02-27T03:00:49;99184.84;;;21.47;65.29
78573;BME280;67862;0.000;0.000;2023-02-27T03:03:33;99181.91;;;21.43;65.39
78573;BME280;67862;0.000;0.000;2023-02-27T03:06:01;99189.50;;;21.47;65.36
78573;BME280;67862;0.000;0.000;2023-02-27T03:08:29;99188.69;;;21.46;65.46
78573;BME280;67862;0.000;0.000;2023-02-27T03:10:56;99195.56;;;21.43;65.63
78573;BME280;67862;0.000;0.000;2023-02-27T03:18:17;99195.28;;;21.40;65.79
78573;BME280;67862;0.000;0.000;2023-02-27T03:20:50;99201.34;;;21.37;65.97
78573;BME280;67862;0.000;0.000;2023-02-27T03:26:01;99204.84;;;21.42;65.85
78573;BME280;67862;0.000;0.000;2023-02-27T03:28:30;99208.91;;;21.45;65.89
78573;BME280;67862;0.000;0.000;2023-02-27T03:30:58;99213.03;;;21.42;66.23
78573;BME280;67862;0.000;0.000;2023-02-27T03:35:53;99218.22;;;21.44;66.75
78573;BME280;67862;0.000;0.000;2023-02-27T03:46:15;99224.78;;;21.43;66.11
78573;BME280;67862;0.000;0.000;2023-02-27T03:48:41;99224.59;;;21.34;66.88
78573;BME280;67862;0.000;0.000;2023-02-27T03:51:29;99228.88;;;21.40;66.63
78573;BME280;67862;0.000;0.000;2023-02-27T03:53:56;99231.59;;;21.40;67.22
78573;BME280;67862;0.000;0.000;2023-02-27T03:56:30;99235.16;;;21.41;66.85
78573;BME280;67862;0.000;0.000;2023-02-27T03:58:56;99245.53;;;21.44;67.02
78573;BME280;67862;0.000;0.000;2023-02-27T04:01:22;99249.09;;;21.39;67.41
78573;BME280;67862;0.000;0.000;2023-02-27T04:03:50;99244.16;;;21.41;67.07
78573;BME280;67862;0.000;0.000;2023-02-27T04:06:17;99255.38;;;21.40;67.31
78573;BME280;67862;0.000;0.000;2023-02-27T04:09:14;99251.53;;;21.41;67.11
78573;BME280;67862;0.000;0.000;2023-02-27T04:14:34;99257.34;;;21.34;66.90
78573;BME280;67862;0.000;0.000;2023-02-27T04:19:57;99251.34;;;21.32;66.43
78573;BME280;67862;0.000;0.000;2023-02-27T04:22:38;99249.19;;;21.29;66.90
78573;BME280;67862;0.000;0.000;2023-02-27T04:35:49;99258.97;;;21.35;67.07
78573;BME280;67862;0.000;0.000;2023-02-27T04:43:26;99253.22;;;21.37;67.06
78573;BME280;67862;0.000;0.000;2023-02-27T04:45:52;99255.97;;;21.37;67.17
78573;BME280;67862;0.000;0.000;2023-02-27T04:48:24;99248.88;;;21.36;66.92
78573;BME280;67862;0.000;0.000;2023-02-27T04:50:54;99250.19;;;21.38;67.18
78573;BME280;67862;0.000;0.000;2023-02-27T04:53:26;99263.63;;;21.35;67.29
78573;BME280;67862;0.000;0.000;2023-02-27T04:55:54;99270.72;;;21.36;67.15
78573;BME280;67862;0.000;0.000;2023-02-27T04:59:07;99273.44;;;21.36;67.37
78573;BME280;67862;0.000;0.000;2023-02-27T05:01:08;99282.75;;;21.35;67.67
78573;BME280;67862;0.000;0.000;2023-02-27T05:03:37;99285.78;;;21.33;67.47
78573;BME280;67862;0.000;0.000;2023-02-27T05:06:04;99289.88;;;21.31;67.24
78573;BME280;67862;0.000;0.000;2023-02-27T05:08:47;99301.06;;;21.29;67.34
78573;BME280;67862;0.000;0.000;2023-02-27T05:11:35;99309.56;;;21.28;67.40
78573;BME280;67862;0.000;0.000;2023-02-27T05:14:16;99312.53;;;21.31;67.44
78573;BME280;67862;0.000;0.000;2023-02-27T05:16:51;99305.47;;;21.25;67.65
78573;BME280;67862;0.000;0.000;2023-02-27T05:19:18;99314.22;;;21.22;68.01
78573;BME280;67862;0.000;0.000;2023-02-27T05:21:56;99313.66;;;21.25;67.84
78573;BME280;67862;0.000;0.000;2023-02-27T05:25:27;99319.13;;;21.25;68.28
78573;BME280;67862;0.000;0.000;2023-02-27T05:27:23;99318.31;;;21.25;68.00
78573;BME280;67862;0.000;0.000;2023-02-27T05:29:55;99324.84;;;21.29;68.33
78573;BME280;67862;0.000;0.000;2023-02-27T05:32:36;99325.66;;;21.29;68.24
78573;BME280;67862;0.000;0.000;2023-02-27T05:37:38;99331.13;;;21.29;67.96
78573;BME280;67862;0.000;0.000;2023-02-27T05:40:07;99334.66;;;21.30;68.20
78573;BME280;67862;0.000;0.000;2023-02-27T05:42:46;99344.19;;;21.32;67.48
78573;BME280;67862;0.000;0.000;2023-02-27T05:45:16;99350.22;;;21.29;67.84
78573;BME280;67862;0.000;0.000;2023-02-27T05:47:44;99343.94;;;21.29;67.47
78573;BME280;67862;0.000;0.000;2023-02-27T05:50:12;99347.50;;;21.29;67.96
78573;BME280;67862;0.000;0.000;2023-02-27T05:52:39;99343.66;;;21.30;67.93
78573;BME280;67862;0.000;0.000;2023-02-27T05:55:20;99343.69;;;21.25;67.93
78573;BME280;67862;0.000;0.000;2023-02-27T05:57:51;99357.91;;;21.27;67.61
78573;BME280;67862;0.000;0.000;2023-02-27T06:02:55;99352.44;;;21.27;67.69
78573;BME280;67862;0.000;0.000;2023-02-27T06:05:20;99348.59;;;21.28;67.78
78573;BME280;67862;0.000;0.000;2023-02-27T06:07:46;99356.19;;;20.43;64.34
78573;BME280;67862;0.000;0.000;2023-02-27T06:10:16;99369.72;;;19.42;64.71
78573;BME280;67862;0.000;0.000;2023-02-27T06:12:43;99369.66;;;18.86;61.47
78573;BME280;67862;0.000;0.000;2023-02-27T06:15:09;99375.59;;;18.73;62.10
78573;BME280;67862;0.000;0.000;2023-02-27T06:17:34;99375.63;;;17.73;57.33
78573;BME280;67862;0.000;0.000;2023-02-27T06:20:00;99383.50;;;17.43;56.30
78573;BME280;67862;0.000;0.000;2023-02-27T06:22:28;99395.38;;;17.37;57.98
78573;BME280;67862;0.000;0.000;2023-02-27T06:24:53;99387.63;;;18.25;59.15
78573;BME280;67862;0.000;0.000;2023-02-27T06:27:19;99406.19;;;19.21;59.92
78573;BME280;67862;0.000;0.000;2023-02-27T06:29:44;99405.66;;;19.75;59.63
78573;BME280;67862;0.000;0.000;2023-02-27T06:32:09;99418.44;;;20.00;58.67
78573;BME280;67862;0.000;0.000;2023-02-27T06:34:35;99422.19;;;20.24;58.50
78573;BME280;67862;0.000;0.000;2023-02-27T06:37:00;99435.50;;;20.36;58.78
78573;BME280;67862;0.000;0.000;2023-02-27T06:39:25;99443.16;;;20.39;59.25
78573;BME280;67862;0.000;0.000;2023-02-27T06:41:51;99439.91;;;20.37;58.88
78573;BME280;67862;0.000;0.000;2023-02-27T06:44:16;99450.00;;;20.47;58.15
78573;BME280;67862;0.000;0.000;2023-02-27T06:46:42;99448.63;;;20.49;58.29
78573;BME280;67862;0.000;0.000;2023-02-27T06:49:07;99463.88;;;20.45;58.50
78573;BME280;67862;0.000;0.000;2023-02-27T06:51:33;99461.97;;;20.46;58.32
78573;BME280;67862;0.000;0.000;2023-02-27T06:53:58;99459.78;;;20.58;58.78
78573;BME280;67862;0.000;0.000;2023-02-27T06:56:23;99460.34;;;20.50;58.47
78573;BME280;67862;0.000;0.000;2023-02-27T06:58:49;99464.41;;;20.52;58.93
78573;BME280;67862;0.000;0.000;2023-02-27T07:01:14;99473.44;;;20.48;58.79
78573;BME280;67862;0.000;0.000;2023-02-27T07:03:40;99468.25;;;20.51;58.90
78573;BME280;67862;0.000;0.000;2023-02-27T07:06:05;99466.06;;;20.43;58.69
78573;BME280;67862;0.000;0.000;2023-02-27T07:08:30;99463.63;;;20.47;57.80
78573;BME280;67862;0.000;0.000;2023-02-27T07:10:56;99470.72;;;20.43;58.08
78573;BME280;67862;0.000;0.000;2023-02-27T07:13:22;99472.34;;;20.44;57.76
78573;BME280;67862;0.000;0.000;2023-02-27T07:15:47;99479.44;;;20.50;57.73
78573;BME280;67862;0.000;0.000;2023-02-27T07:18:13;99481.63;;;20.48;57.15
78573;BME280;67862;0.000;0.000;2023-02-27T07:20:39;99486.78;;;20.39;56.94
78573;BME280;67862;0.000;0.000;2023-02-27T07:23:04;99483.78;;;20.46;56.64
78573;BME280;67862;0.000;0.000;2023-02-27T07:25:30;99489.81;;;20.48;56.32
78573;BME280;67862;0.000;0.000;2023-02-27T07:27:55;99487.06;;;20.48;56.75
78573;BME280;67862;0.000;0.000;2023-02-27T07:30:20;99489.53;;;20.44;56.18
78573;BME280;67862;0.000;0.000;2023-02-27T07:32:46;99496.88;;;20.49;56.30
78573;BME280;67862;0.000;0.000;2023-02-27T07:35:11;99493.06;;;20.50;56.07
78573;BME280;67862;0.000;0.000;2023-02-27T07:37:36;99487.03;;;20.58;55.47
78573;BME280;67862;0.000;0.000;2023-02-27T07:40:02;99490.31;;;20.55;56.17
78573;BME280;67862;0.000;0.000;2023-02-27T07:42:28;99499.34;;;20.50;56.04
78573;BME280;67862;0.000;0.000;2023-02-27T07:44:53;99497.41;;;20.56;56.06
78573;BME280;67862;0.000;0.000;2023-02-27T07:47:18;99491.94;;;20.61;55.97
78573;BME280;67862;0.000;0.000;2023-02-27T07:49:44;99494.09;;;20.64;56.19
78573;BME280;67862;0.000;0.000;2023-02-27T07:52:09;99505.28;;;20.68;55.76
78573;BME280;67862;0.000;0.000;2023-02-27T07:54:35;99497.34;;;20.71;56.17
78573;BME280;67862;0.000;0.000;2023-02-27T07:57:02;99502.81;;;20.71;55.83
78573;BME280;67862;0.000;0.000;2023-02-27T07:59:27;99509.38;;;20.75;55.60
78573;BME280;67862;0.000;0.000;2023-02-27T08:01:53;99519.19;;;20.71;54.92
78573;BME280;67862;0.000;0.000;2023-02-27T08:04:18;99521.91;;;20.71;56.11
78573;BME280;67862;0.000;0.000;2023-02-27T08:06:44;99523.25;;;20.74;55.80
78573;BME280;67862;0.000;0.000;2023-02-27T08:09:09;99516.69;;;20.75;56.32
78573;BME280;67862;0.000;0.000;2023-02-27T08:11:35;99519.72;;;20.73;55.89
78573;BME280;67862;0.000;0.000;2023-02-27T08:14:00;99521.63;;;20.78;55.04
78573;BME280;67862;0.000;0.000;2023-02-27T08:16:25;99524.06;;;20.79;56.21
78573;BME280;67862;0.000;0.000;2023-02-27T08:18:51;99528.44;;;20.80;56.14
78573;BME280;67862;0.000;0.000;2023-02-27T08:21:16;99528.16;;;20.82;55.85
78573;BME280;67862;0.000;0.000;2023-02-27T08:23:41;99529.78;;;20.83;56.15
78573;BME280;67862;0.000;0.000;2023-02-27T08:26:07;99534.41;;;20.82;55.57
78573;BME280;67862;0.000;0.000;2023-02-27T08:28:33;99538.53;;;20.85;55.81
78573;BME280;67862;0.000;0.000;2023-02-27T08:30:58;99551.06;;;20.81;55.86
78573;BME280;67862;0.000;0.000;2023-02-27T08:33:24;99546.72;;;20.85;55.55
78573;BME280;67862;0.000;0.000;2023-02-27T08:35:49;99550.50;;;20.89;55.19
78573;BME280;67862;0.000;0.000;2023-02-27T08:38:15;99559.22;;;20.91;55.34
78573;BME280;67862;0.000;0.000;2023-02-27T08:40:40;99573.72;;;20.86;55.82
78573;BME280;67862;0.000;0.000;2023-02-27T08:43:05;99574.00;;;20.85;55.61
78573;BME280;67862;0.000;0.000;2023-02-27T08:45:30;99579.44;;;20.95;55.07
78573;BME280;67862;0.000;0.000;2023-02-27T08:47:56;99581.09;;;20.86;55.77
78573;BME280;67862;0.000;0.000;2023-02-27T08:50:24;99584.63;;;20.86;55.64
78573;BME280;67862;0.000;0.000;2023-02-27T08:52:52;99588.19;;;20.82;55.62
78573;BME280;67862;0.000;0.000;2023-02-27T08:55:17;99590.63;;;20.83;55.61
78573;BME280;67862;0.000;0.000;2023-02-27T08:57:43;99584.09;;;20.84;55.66
78573;BME280;67862;0.000;0.000;2023-02-27T09:00:08;99591.72;;;20.88;55.11
78573;BME280;67862;0.000;0.000;2023-02-27T09:02:38;99592.78;;;20.92;55.41
78573;BME280;67862;0.000;0.000;2023-02-27T09:05:04;99596.91;;;20.89;55.18
78573;BME280;67862;0.000;0.000;2023-02-27T09:07:29;99602.34;;;20.89;54.08
78573;BME280;67862;0.000;0.000;2023-02-27T09:09:55;99603.19;;;20.84;54.00
78573;BME280;67862;0.000;0.000;2023-02-27T09:12:21;99598.25;;;20.92;54.13
78573;BME280;67862;0.000;0.000;2023-02-27T09:14:46;99605.91;;;20.90;53.63
78573;BME280;67862;0.000;0.000;2023-02-27T09:17:11;99603.72;;;20.97;54.03
78573;BME280;67862;0.000;0.000;2023-02-27T09:19:36;99604.53;;;20.92;53.90
78573;BME280;67862;0.000;0.000;2023-02-27T09:22:02;99605.91;;;20.95;53.64
78573;BME280;67862;0.000;0.000;2023-02-27T09:24:27;99597.44;;;20.96;53.26
78573;BME280;67862;0.000;0.000;2023-02-27T09:26:53;99609.44;;;20.95;53.92
78573;BME280;67862;0.000;0.000;2023-02-27T09:29:18;99600.69;;;20.98;53.53
78573;BME280;67862;0.000;0.000;2023-02-27T09:31:43;99599.84;;;21.03;53.58
78573;BME280;67862;0.000;0.000;2023-02-27T09:34:09;99601.22;;;21.00;53.97
78573;BME280;67862;0.000;0.000;2023-02-27T09:36:34;99611.63;;;20.98;53.86
78573;BME280;67862;0.000;0.000;2023-02-27T09:38:59;99614.06;;;21.05;53.84
78573;BME280;67862;0.000;0.000;2023-02-27T09:44:03;99610.78;;;21.03;53.23
78573;BME280;67862;0.000;0.000;2023-02-27T09:46:28;99615.72;;;20.96;52.91
78573;BME280;67862;0.000;0.000;2023-02-27T09:48:58;99611.06;;;21.06;53.32
78573;BME280;67862;0.000;0.000;2023-02-27T09:51:24;99615.94;;;21.09;52.77
78573;BME280;67862;0.000;0.000;2023-02-27T09:53:51;99619.22;;;21.11;53.60
78573;BME280;67862;0.000;0.000;2023-02-27T09:56:23;99614.84;;;21.15;53.72
78573;BME280;67862;0.000;0.000;2023-02-27T09:58:52;99615.13;;;21.14;53.71
78573;BME280;67862;0.000;0.000;2023-02-27T10:01:22;99617.84;;;21.14;52.92
78573;BME280;67862;0.000;0.000;2023-02-27T10:09:08;99625.44;;;21.22;54.11
78573;BME280;67862;0.000;0.000;2023-02-27T10:14:44;99622.47;;;21.24;53.97
78573;BME280;67862;0.000;0.000;2023-02-27T10:17:14;99622.19;;;21.25;53.96
78573;BME280;67862;0.000;0.000;2023-02-27T10:19:41;99624.38;;;21.28;54.29
78573;BME280;67862;0.000;0.000;2023-02-27T10:22:09;99624.38;;;21.28;53.84
78573;BME280;67862;0.000;0.000;2023-02-27T10:24:41;99626.00;;;21.24;54.62
78573;BME280;67862;0.000;0.000;2023-02-27T10:27:11;99624.09;;;21.30;54.74
78573;BME280;67862;0.000;0.000;2023-02-27T10:29:38;99619.16;;;21.32;54.52
78573;BME280;67862;0.000;0.000;2023-02-27T10:35:35;99627.41;;;21.27;54.47
78573;BME280;67862;0.000;0.000;2023-02-27T10:37:36;99621.94;;;21.27;54.49
78573;BME280;67862;0.000;0.000;2023-02-27T10:40:04;99618.34;;;21.31;54.41
78573;BME280;67862;0.000;0.000;2023-02-27T10:42:33;99621.09;;;21.31;54.16
78573;BME280;67862;0.000;0.000;2023-02-27T10:44:59;99625.44;;;21.32;54.67
78573;BME280;67862;0.000;0.000;2023-02-27T10:47:25;99624.38;;;21.33;54.67
78573;BME280;67862;0.000;0.000;2023-02-27T10:49:51;99625.19;;;21.34;54.05
78573;BME280;67862;0.000;0.000;2023-02-27T10:52:20;99623.81;;;21.36;54.14
78573;BME280;67862;0.000;0.000;2023-02-27T10:54:46;99626.53;;;21.36;54.08
78573;BME280;67862;0.000;0.000;2023-02-27T10:59:58;99623.00;;;21.31;54.47
78573;BME280;67862;0.000;0.000;2023-02-27T11:02:25;99623.22;;;21.45;56.02
78573;BME280;67862;0.000;0.000;2023-02-27T11:04:52;99618.00;;;21.48;55.67
78573;BME280;67862;0.000;0.000;2023-02-27T11:12:34;99613.69;;;21.37;54.47
78573;BME280;67862;0.000;0.000;2023-02-27T11:15:01;99616.91;;;21.49;55.09
78573;BME280;67862;0.000;0.000;2023-02-27T11:17:28;99615.53;;;21.52;54.83
78573;BME280;67862;0.000;0.000;2023-02-27T11:19:56;99619.88;;;21.58;55.10
78573;BME280;67862;0.000;0.000;2023-02-27T11:22:23;99617.72;;;21.55;55.18
78573;BME280;67862;0.000;0.000;2023-02-27T11:24:49;99626.97;;;21.59;55.18
78573;BME280;67862;0.000;0.000;2023-02-27T11:27:19;99628.09;;;21.58;55.28
78573;BME280;67862;0.000;0.000;2023-02-27T11:29:56;99630.81;;;21.63;54.71
78573;BME280;67862;0.000;0.000;2023-02-27T11:32:22;99624.25;;;21.59;55.04
78573;BME280;67862;0.000;0.000;2023-02-27T11:34:49;99628.38;;;21.56;55.40
78573;BME280;67862;0.000;0.000;2023-02-27T11:40:13;99624.06;;;21.94;54.24
78573;BME280;67862;0.000;0.000;2023-02-27T11:42:45;99625.72;;;21.90;54.03
78573;BME280;67862;0.000;0.000;2023-02-27T11:45:23;99618.31;;;21.96;54.96
78573;BME280;67862;0.000;0.000;2023-02-27T11:47:53;99625.97;;;21.94;54.52
78573;BME280;67862;0.000;0.000;2023-02-27T11:53:09;99620.03;;;21.82;54.79
78573;BME280;67862;0.000;0.000;2023-02-27T11:55:38;99624.13;;;21.79;54.61
78573;BME280;67862;0.000;0.000;2023-02-27T11:58:08;99626.34;;;21.77;54.95
78573;BME280;67862;0.000;0.000;2023-02-27T12:00:38;99622.25;;;21.75;54.85
78573;BME280;67862;0.000;0.000;2023-02-27T12:05:53;99619.53;;;21.75;54.56
78573;BME280;67862;0.000;0.000;2023-02-27T12:08:29;99621.44;;;21.74;54.80
78573;BME280;67862;0.000;0.000;2023-02-27T12:10:56;99621.44;;;21.74;54.92
78573;BME280;67862;0.000;0.000;2023-02-27T12:20:56;99628.53;;;21.75;55.01
78573;BME280;67862;0.000;0.000;2023-02-27T12:25:52;99632.91;;;21.71;54.70
78573;BME280;67862;0.000;0.000;2023-02-27T12:36:02;99650.41;;;21.75;54.94
78573;BME280;67862;0.000;0.000;2023-02-27T12:38:28;99649.59;;;21.75;54.85
78573;BME280;67862;0.000;0.000;2023-02-27T14:27:15;99681.09;;;21.52;51.20
78573;BME280;67862;0.000;0.000;2023-02-27T14:29:44;99676.44;;;21.62;50.87
78573;BME280;67862;0.000;0.000;2023-02-27T14:32:13;99678.84;;;21.69;51.14
78573;BME280;67862;0.000;0.000;2023-02-27T14:34:41;99672.25;;;21.75;51.25
78573;BME280;67862;0.000;0.000;2023-02-27T14:37:09;99671.97;;;21.77;51.33
78573;BME280;67862;0.000;0.000;2023-02-27T14:39:36;99677.97;;;21.79;51.14
78573;BME280;67862;0.000;0.000;2023-02-27T14:45:12;99682.34;;;21.80;51.67
78573;BME280;67862;0.000;0.000;2023-02-27T14:47:38;99685.88;;;21.80;51.72
78573;BME280;67862;0.000;0.000;2023-02-27T14:50:06;99695.19;;;21.79;51.90
78573;BME280;67862;0.000;0.000;2023-02-27T14:52:39;99696.28;;;21.83;52.12
78573;BME280;67862;0.000;0.000;2023-02-27T14:55:16;99702.81;;;21.87;51.72
78573;BME280;67862;0.000;0.000;2023-02-27T14:57:56;99699.78;;;21.89;52.09
78573;BME280;67862;0.000;0.000;2023-02-27T15:06:00;99700.66;;;21.84;52.10
78573;BME280;67862;0.000;0.000;2023-02-27T15:08:35;99701.47;;;21.85;52.18
78573;BME280;67862;0.000;0.000;2023-02-27T15:11:02;99710.47;;;21.85;51.94
78573;BME280;67862;0.000;0.000;2023-02-27T15:13:31;99716.22;;;21.84;52.22
78573;BME280;67862;0.000;0.000;2023-02-27T15:18:41;99726.31;;;21.88;52.18
78573;BME280;67862;0.000;0.000;2023-02-27T15:21:10;99725.78;;;21.91;51.89
78573;BME280;67862;0.000;0.000;2023-02-27T15:23:38;99727.41;;;21.92;51.99
78573;BME280;67862;0.000;0.000;2023-02-27T15:26:04;99732.88;;;21.92;51.75
78573;BME280;67862;0.000;0.000;2023-02-27T15:28:30;99736.69;;;21.91;51.73
78573;BME280;67862;0.000;0.000;2023-02-27T15:30:59;99736.13;;;21.89;51.65
78573;BME280;67862;0.000;0.000;2023-02-27T15:33:29;99739.69;;;21.90;52.06
78573;BME280;67862;0.000;0.000;2023-02-27T15:35:54;99743.25;;;21.90;51.59
78573;BME280;67862;0.000;0.000;2023-02-27T15:40:51;99753.63;;;21.88;51.96
78573;BME280;67862;0.000;0.000;2023-02-27T15:43:17;99754.22;;;21.85;52.01
78573;BME280;67862;0.000;0.000;2023-02-27T15:45:43;99761.59;;;21.85;51.81
78573;BME280;67862;0.000;0.000;2023-02-27T15:48:11;99763.50;;;21.79;52.31
78573;BME280;67862;0.000;0.000;2023-02-27T15:50:40;99774.44;;;21.79;52.16
78573;BME280;67862;0.000;0.000;2023-02-27T15:55:32;99784.63;;;20.67;50.39
78573;BME280;67862;0.000;0.000;2023-02-27T15:57:58;99778.88;;;20.53;50.60
78573;BME280;67862;0.000;0.000;2023-02-27T16:00:24;99787.03;;;20.43;49.95
78573;BME280;67862;0.000;0.000;2023-02-27T16:02:54;99780.97;;;20.36;50.44
78573;BME280;67862;0.000;0.000;2023-02-27T16:05:21;99794.59;;;20.30;50.10
78573;BME280;67862;0.000;0.000;2023-02-27T16:07:47;99794.81;;;20.14;49.60
78573;BME280;67862;0.000;0.000;2023-02-27T16:10:24;99791.81;;;20.10;49.46
78573;BME280;67862;0.000;0.000;2023-02-27T16:12:50;99804.59;;;19.99;49.96
78573;BME280;67862;0.000;0.000;2023-02-27T16:23:04;99808.53;;;19.71;49.68
78573;BME280;67862;0.000;0.000;2023-02-27T16:25:30;99817.47;;;19.67;50.03
78573;BME280;67862;0.000;0.000;2023-02-27T16:27:55;99818.59;;;19.71;49.85
78573;BME280;67862;0.000;0.000;2023-02-27T16:30:21;99825.06;;;19.60;49.94
78573;BME280;67862;0.000;0.000;2023-02-27T16:32:46;99826.66;;;19.56;50.31
78573;BME280;67862;0.000;0.000;2023-02-27T16:35:16;99826.34;;;19.52;50.33
78573;BME280;67862;0.000;0.000;2023-02-27T16:37:42;99830.00;;;19.68;51.21
78573;BME280;67862;0.000;0.000;2023-02-27T16:42:37;99845.19;;;20.58;52.80
78573;BME280;67862;0.000;0.000;2023-02-27T16:45:05;99843.59;;;20.88;52.90
78573;BME280;67862;0.000;0.000;2023-02-27T16:47:31;99848.81;;;21.05;52.27
78573;BME280;67862;0.000;0.000;2023-02-27T16:49:56;99847.44;;;21.07;51.88
78573;BME280;67862;0.000;0.000;2023-02-27T17:08:17;99876.72;;;21.42;53.25
78573;BME280;67862;0.000;0.000;2023-02-27T17:10:43;99870.16;;;21.28;53.10
78573;BME280;67862;0.000;0.000;2023-02-27T17:13:08;99873.13;;;21.17;52.76
78573;BME280;67862;0.000;0.000;2023-02-27T17:15:34;99869.81;;;21.09;52.89
78573;BME280;67862;0.000;0.000;2023-02-27T17:17:59;99885.09;;;21.00;52.60
78573;BME280;67862;0.000;0.000;2023-02-27T17:20:25;99881.81;;;20.98;52.88
78573;BME280;67862;0.000;0.000;2023-02-27T17:22:52;99879.91;;;20.99;52.40
78573;BME280;67862;0.000;0.000;2023-02-27T17:25:17;99882.91;;;20.97;52.36
78573;BME280;67862;0.000;0.000;2023-02-27T17:27:43;99887.00;;;21.00;52.00
78573;BME280;67862;0.000;0.000;2023-02-27T17:30:08;99897.38;;;20.98;52.30
78573;BME280;67862;0.000;0.000;2023-02-27T17:32:34;99904.47;;;20.99;52.07
78573;BME280;67862;0.000;0.000;2023-02-27T17:34:59;99909.38;;;21.02;51.43
78573;BME280;67862;0.000;0.000;2023-02-27T17:37:25;99905.56;;;21.03;51.48
78573;BME280;67862;0.000;0.000;2023-02-27T17:39:51;99912.69;;;21.04;51.82
78573;BME280;67862;0.000;0.000;2023-02-27T17:42:16;99907.22;;;21.09;51.72